Terminal Aerodrome Forecast
Issued by NWS

Home | Current Version | Previous Version | Text Only | Print | Product List | Glossary On
Versions: 1 2 3 4 5 6 7 8 9 10 11 12
000
FTUS46 KHNX 311120
TAFBFL
TAF
KBFL 311120Z 3112/0112 23003KT P6SM SCT200
      TEMPO 0101/0105 5SM -TSRA SCT050CB BKN100
     FM010500 10006KT 5SM -RA SCT030 BKN050 OVC120=

USA.gov is the U.S. government's official web portal to all federal, state and local government web resources and services.